Hlavní strana
METAR-TAF:

METAR-TAF

Letiště :

Perm, Rusko

zeměpisná šířka: 58-00N, zeměpisná délka: 056-15E, výška: 170 m

Aktuální stav počasí

Zpráva byla vytvořena před 39 minutami, v 13:30 UTC
Severovýchodní vítr 2 kt
Teplota 4°C
Vlhkost vzduchu 60%
Tlak 1027 hPa
Viditelnost 10 km a více
Žádná oblačnost pod 1500 m, nevyskytují se cumulonimby.

METAR: USPP 181330Z 04001MPS CAVOK 04/M03 Q1027 R21/190055 NOSIG RMK QFE759

Čas: 19:09 (14:09 UTC)

Předpověď počasí

Zpráva byla vytvořena před 3 hodinami a 11 minutami, v 10:58 UTC
Předpověď platná od 18 v 12 UTC do 19 v 12 UTC
Jihovýchodní vítr 6 kt
Viditelnost 10 km a více
Žádná oblačnost pod 1500 m, nevyskytují se cumulonimby.
Dočasný
od 18 v 15 UTC do 19 v 03 UTC
Viditelnost: 3100 m
kouřmo

TAF: USPP 181058Z 1812/1912 14003MPS CAVOK TEMPO 1815/1903 3100 BR

Stav a předpovědi počasí z více než 4 000 letišť (zprávy METAR a TAF).

Červené a žluté tečky na mapě představují dostupné meteorologické stanice.

Když kurzor umístíte na tečku, zobrazí se název stanice.

Pak kliknutím zobrazíte stav a předpověď počasí.

Chcete-li změnit mapu, kliknutím na zelené tlačítko se znaménkem +mapu přiblížíte, kliknutím na zelené tlačítko se znaménkem – mapu oddálíte a kliknutím na zelené šipky přejdete na sousední mapy.


METAR-TAF: